sensor_id;sensor_type;location;lat;lon;timestamp;P1;durP1;ratioP1;P2;durP2;ratioP2
38611;SDS011;24368;52.156;20.788;2023-02-23T00:02:26;5.00;;;4.40;;
38611;SDS011;24368;52.156;20.788;2023-02-23T00:07:28;5.80;;;4.10;;
38611;SDS011;24368;52.156;20.788;2023-02-23T00:12:30;5.20;;;4.60;;
38611;SDS011;24368;52.156;20.788;2023-02-23T00:17:32;5.40;;;4.60;;
38611;SDS011;24368;52.156;20.788;2023-02-23T00:22:34;5.60;;;4.30;;
38611;SDS011;24368;52.156;20.788;2023-02-23T00:27:35;7.10;;;4.70;;
38611;SDS011;24368;52.156;20.788;2023-02-23T00:32:39;7.60;;;5.60;;
38611;SDS011;24368;52.156;20.788;2023-02-23T00:37:45;5.80;;;5.10;;
38611;SDS011;24368;52.156;20.788;2023-02-23T00:42:48;6.10;;;5.50;;
38611;SDS011;24368;52.156;20.788;2023-02-23T00:47:51;7.70;;;5.70;;
38611;SDS011;24368;52.156;20.788;2023-02-23T00:52:55;9.00;;;7.00;;
38611;SDS011;24368;52.156;20.788;2023-02-23T00:57:59;9.60;;;6.40;;
38611;SDS011;24368;52.156;20.788;2023-02-23T01:03:01;7.50;;;5.80;;
38611;SDS011;24368;52.156;20.788;2023-02-23T01:08:03;6.60;;;5.80;;
38611;SDS011;24368;52.156;20.788;2023-02-23T01:13:09;6.80;;;5.50;;
38611;SDS011;24368;52.156;20.788;2023-02-23T01:18:12;7.10;;;5.30;;
38611;SDS011;24368;52.156;20.788;2023-02-23T01:23:15;6.70;;;5.30;;
38611;SDS011;24368;52.156;20.788;2023-02-23T01:28:17;7.60;;;6.30;;
38611;SDS011;24368;52.156;20.788;2023-02-23T01:33:19;7.00;;;5.20;;
38611;SDS011;24368;52.156;20.788;2023-02-23T01:38:21;6.50;;;5.50;;
38611;SDS011;24368;52.156;20.788;2023-02-23T01:43:22;7.00;;;5.60;;
38611;SDS011;24368;52.156;20.788;2023-02-23T01:48:28;10.70;;;7.60;;
38611;SDS011;24368;52.156;20.788;2023-02-23T01:53:36;9.30;;;6.90;;
38611;SDS011;24368;52.156;20.788;2023-02-23T01:58:44;7.90;;;6.50;;
38611;SDS011;24368;52.156;20.788;2023-02-23T02:03:48;8.20;;;6.70;;
38611;SDS011;24368;52.156;20.788;2023-02-23T02:08:56;7.70;;;6.20;;
38611;SDS011;24368;52.156;20.788;2023-02-23T02:14:16;7.50;;;6.60;;
38611;SDS011;24368;52.156;20.788;2023-02-23T02:19:29;8.70;;;6.20;;
38611;SDS011;24368;52.156;20.788;2023-02-23T02:41:04;6.50;;;5.60;;
38611;SDS011;24368;52.156;20.788;2023-02-23T02:57:21;7.50;;;5.80;;
38611;SDS011;24368;52.156;20.788;2023-02-23T03:02:25;8.10;;;6.40;;
38611;SDS011;24368;52.156;20.788;2023-02-23T03:07:56;7.30;;;6.60;;
38611;SDS011;24368;52.156;20.788;2023-02-23T03:14:01;9.80;;;6.70;;
38611;SDS011;24368;52.156;20.788;2023-02-23T03:19:27;9.80;;;6.80;;
38611;SDS011;24368;52.156;20.788;2023-02-23T03:24:59;9.30;;;6.20;;
38611;SDS011;24368;52.156;20.788;2023-02-23T03:30:28;7.70;;;6.10;;
38611;SDS011;24368;52.156;20.788;2023-02-23T03:35:56;10.60;;;6.80;;
38611;SDS011;24368;52.156;20.788;2023-02-23T03:41:32;7.80;;;6.00;;
38611;SDS011;24368;52.156;20.788;2023-02-23T03:46:56;7.10;;;5.80;;
38611;SDS011;24368;52.156;20.788;2023-02-23T03:52:28;7.70;;;6.80;;
38611;SDS011;24368;52.156;20.788;2023-02-23T04:03:17;8.30;;;6.10;;
38611;SDS011;24368;52.156;20.788;2023-02-23T04:08:41;8.00;;;5.90;;
38611;SDS011;24368;52.156;20.788;2023-02-23T04:14:03;7.30;;;5.80;;
38611;SDS011;24368;52.156;20.788;2023-02-23T04:19:07;7.40;;;6.50;;
38611;SDS011;24368;52.156;20.788;2023-02-23T04:24:09;10.60;;;7.10;;
38611;SDS011;24368;52.156;20.788;2023-02-23T04:29:11;7.80;;;6.40;;
38611;SDS011;24368;52.156;20.788;2023-02-23T04:34:13;11.90;;;8.10;;
38611;SDS011;24368;52.156;20.788;2023-02-23T04:39:14;8.40;;;6.80;;
38611;SDS011;24368;52.156;20.788;2023-02-23T04:44:16;7.40;;;5.80;;
38611;SDS011;24368;52.156;20.788;2023-02-23T04:49:18;7.30;;;5.80;;
38611;SDS011;24368;52.156;20.788;2023-02-23T04:54:20;8.40;;;6.60;;
38611;SDS011;24368;52.156;20.788;2023-02-23T04:59:22;8.30;;;6.10;;
38611;SDS011;24368;52.156;20.788;2023-02-23T05:04:24;10.70;;;6.90;;
38611;SDS011;24368;52.156;20.788;2023-02-23T05:09:26;8.10;;;7.00;;
38611;SDS011;24368;52.156;20.788;2023-02-23T05:14:27;9.00;;;6.00;;
38611;SDS011;24368;52.156;20.788;2023-02-23T05:19:29;12.90;;;10.80;;
38611;SDS011;24368;52.156;20.788;2023-02-23T05:24:31;11.80;;;6.00;;
38611;SDS011;24368;52.156;20.788;2023-02-23T05:29:33;6.60;;;5.30;;
38611;SDS011;24368;52.156;20.788;2023-02-23T05:34:35;7.50;;;6.20;;
38611;SDS011;24368;52.156;20.788;2023-02-23T05:39:37;7.40;;;5.90;;
38611;SDS011;24368;52.156;20.788;2023-02-23T05:44:39;8.10;;;6.40;;
38611;SDS011;24368;52.156;20.788;2023-02-23T05:49:41;7.40;;;6.10;;
38611;SDS011;24368;52.156;20.788;2023-02-23T05:54:43;7.80;;;6.20;;
38611;SDS011;24368;52.156;20.788;2023-02-23T05:59:47;10.70;;;7.40;;
38611;SDS011;24368;52.156;20.788;2023-02-23T06:04:49;12.10;;;7.80;;
38611;SDS011;24368;52.156;20.788;2023-02-23T06:09:51;8.00;;;6.00;;
38611;SDS011;24368;52.156;20.788;2023-02-23T06:14:53;10.40;;;6.70;;
38611;SDS011;24368;52.156;20.788;2023-02-23T06:19:54;8.60;;;6.90;;
38611;SDS011;24368;52.156;20.788;2023-02-23T06:24:56;6.70;;;5.60;;
38611;SDS011;24368;52.156;20.788;2023-02-23T06:29:58;8.60;;;6.60;;
38611;SDS011;24368;52.156;20.788;2023-02-23T06:35:00;8.70;;;6.20;;
38611;SDS011;24368;52.156;20.788;2023-02-23T06:40:02;8.40;;;6.10;;
38611;SDS011;24368;52.156;20.788;2023-02-23T06:45:05;7.00;;;5.40;;
38611;SDS011;24368;52.156;20.788;2023-02-23T06:50:07;9.80;;;7.00;;
38611;SDS011;24368;52.156;20.788;2023-02-23T06:55:10;10.10;;;6.40;;
38611;SDS011;24368;52.156;20.788;2023-02-23T07:00:13;9.00;;;6.90;;
38611;SDS011;24368;52.156;20.788;2023-02-23T07:05:17;9.60;;;6.60;;
38611;SDS011;24368;52.156;20.788;2023-02-23T07:10:19;7.50;;;6.30;;
38611;SDS011;24368;52.156;20.788;2023-02-23T07:15:21;8.30;;;6.80;;
38611;SDS011;24368;52.156;20.788;2023-02-23T07:20:23;10.50;;;6.30;;
38611;SDS011;24368;52.156;20.788;2023-02-23T07:25:25;10.50;;;6.20;;
38611;SDS011;24368;52.156;20.788;2023-02-23T07:35:32;8.00;;;6.20;;
38611;SDS011;24368;52.156;20.788;2023-02-23T07:40:34;10.30;;;7.70;;
38611;SDS011;24368;52.156;20.788;2023-02-23T07:45:36;9.80;;;7.10;;
38611;SDS011;24368;52.156;20.788;2023-02-23T07:50:39;9.50;;;7.20;;
38611;SDS011;24368;52.156;20.788;2023-02-23T07:55:42;8.40;;;6.10;;
38611;SDS011;24368;52.156;20.788;2023-02-23T08:00:44;8.40;;;6.80;;
38611;SDS011;24368;52.156;20.788;2023-02-23T08:05:46;8.90;;;6.50;;
38611;SDS011;24368;52.156;20.788;2023-02-23T08:10:48;10.30;;;7.80;;
38611;SDS011;24368;52.156;20.788;2023-02-23T08:15:49;9.60;;;6.30;;
38611;SDS011;24368;52.156;20.788;2023-02-23T08:20:58;9.40;;;6.90;;
38611;SDS011;24368;52.156;20.788;2023-02-23T08:26:01;9.50;;;6.80;;
38611;SDS011;24368;52.156;20.788;2023-02-23T08:31:07;9.10;;;6.90;;
38611;SDS011;24368;52.156;20.788;2023-02-23T08:36:10;8.60;;;7.40;;
38611;SDS011;24368;52.156;20.788;2023-02-23T08:41:12;9.10;;;6.30;;
38611;SDS011;24368;52.156;20.788;2023-02-23T08:46:14;11.90;;;9.60;;
38611;SDS011;24368;52.156;20.788;2023-02-23T08:51:19;10.20;;;7.40;;
38611;SDS011;24368;52.156;20.788;2023-02-23T08:56:21;7.20;;;6.50;;
38611;SDS011;24368;52.156;20.788;2023-02-23T09:01:25;9.70;;;7.00;;
38611;SDS011;24368;52.156;20.788;2023-02-23T09:06:27;8.10;;;6.50;;
38611;SDS011;24368;52.156;20.788;2023-02-23T09:11:30;11.00;;;7.80;;
38611;SDS011;24368;52.156;20.788;2023-02-23T09:16:32;8.40;;;6.90;;
38611;SDS011;24368;52.156;20.788;2023-02-23T09:21:36;9.20;;;7.80;;
38611;SDS011;24368;52.156;20.788;2023-02-23T09:26:38;11.50;;;8.00;;
38611;SDS011;24368;52.156;20.788;2023-02-23T09:31:42;7.60;;;6.80;;
38611;SDS011;24368;52.156;20.788;2023-02-23T09:36:44;11.10;;;7.40;;
38611;SDS011;24368;52.156;20.788;2023-02-23T09:47:12;8.70;;;7.60;;
38611;SDS011;24368;52.156;20.788;2023-02-23T09:52:56;7.80;;;6.50;;
38611;SDS011;24368;52.156;20.788;2023-02-23T09:58:05;7.90;;;6.60;;
38611;SDS011;24368;52.156;20.788;2023-02-23T10:08:21;8.70;;;7.00;;
38611;SDS011;24368;52.156;20.788;2023-02-23T10:13:47;9.90;;;7.60;;
38611;SDS011;24368;52.156;20.788;2023-02-23T10:29:21;9.40;;;6.50;;
38611;SDS011;24368;52.156;20.788;2023-02-23T10:34:41;8.40;;;7.30;;
38611;SDS011;24368;52.156;20.788;2023-02-23T10:39:49;9.40;;;7.80;;
38611;SDS011;24368;52.156;20.788;2023-02-23T10:44:52;17.90;;;12.30;;
38611;SDS011;24368;52.156;20.788;2023-02-23T10:49:54;8.20;;;7.00;;
38611;SDS011;24368;52.156;20.788;2023-02-23T10:54:58;8.70;;;7.60;;
38611;SDS011;24368;52.156;20.788;2023-02-23T11:05:34;17.20;;;11.60;;
38611;SDS011;24368;52.156;20.788;2023-02-23T11:10:53;10.40;;;7.40;;
38611;SDS011;24368;52.156;20.788;2023-02-23T11:16:13;7.80;;;6.70;;
38611;SDS011;24368;52.156;20.788;2023-02-23T11:21:27;14.00;;;10.60;;
38611;SDS011;24368;52.156;20.788;2023-02-23T11:26:39;7.90;;;6.90;;
38611;SDS011;24368;52.156;20.788;2023-02-23T11:31:47;6.70;;;6.00;;
38611;SDS011;24368;52.156;20.788;2023-02-23T11:37:00;8.10;;;6.10;;
38611;SDS011;24368;52.156;20.788;2023-02-23T11:47:16;6.20;;;4.90;;
38611;SDS011;24368;52.156;20.788;2023-02-23T11:52:22;6.50;;;4.90;;
38611;SDS011;24368;52.156;20.788;2023-02-23T11:57:27;6.20;;;4.80;;
38611;SDS011;24368;52.156;20.788;2023-02-23T12:02:32;6.70;;;5.40;;
38611;SDS011;24368;52.156;20.788;2023-02-23T12:07:45;6.90;;;5.10;;
38611;SDS011;24368;52.156;20.788;2023-02-23T12:18:32;6.40;;;5.10;;
38611;SDS011;24368;52.156;20.788;2023-02-23T12:24:47;5.90;;;5.00;;
38611;SDS011;24368;52.156;20.788;2023-02-23T12:34:43;9.10;;;5.80;;
38611;SDS011;24368;52.156;20.788;2023-02-23T12:39:53;6.50;;;4.90;;
38611;SDS011;24368;52.156;20.788;2023-02-23T12:45:03;7.20;;;6.30;;
38611;SDS011;24368;52.156;20.788;2023-02-23T12:50:14;5.70;;;4.70;;
38611;SDS011;24368;52.156;20.788;2023-02-23T12:55:29;5.30;;;4.80;;
38611;SDS011;24368;52.156;20.788;2023-02-23T13:00:43;6.00;;;4.60;;
38611;SDS011;24368;52.156;20.788;2023-02-23T13:21:22;7.40;;;5.10;;
38611;SDS011;24368;52.156;20.788;2023-02-23T13:31:34;6.40;;;5.40;;
38611;SDS011;24368;52.156;20.788;2023-02-23T13:36:38;7.40;;;5.20;;
38611;SDS011;24368;52.156;20.788;2023-02-23T13:41:52;6.10;;;5.40;;
38611;SDS011;24368;52.156;20.788;2023-02-23T13:47:33;5.10;;;4.40;;
38611;SDS011;24368;52.156;20.788;2023-02-23T13:52:40;7.10;;;5.30;;
38611;SDS011;24368;52.156;20.788;2023-02-23T13:57:44;7.50;;;5.00;;
38611;SDS011;24368;52.156;20.788;2023-02-23T14:02:46;5.50;;;4.90;;
38611;SDS011;24368;52.156;20.788;2023-02-23T14:07:51;6.00;;;5.30;;
38611;SDS011;24368;52.156;20.788;2023-02-23T14:13:06;5.50;;;4.90;;
38611;SDS011;24368;52.156;20.788;2023-02-23T14:33:35;7.50;;;6.20;;
38611;SDS011;24368;52.156;20.788;2023-02-23T14:38:37;6.70;;;6.00;;
38611;SDS011;24368;52.156;20.788;2023-02-23T14:43:42;6.60;;;5.70;;
38611;SDS011;24368;52.156;20.788;2023-02-23T14:48:56;6.80;;;5.40;;
38611;SDS011;24368;52.156;20.788;2023-02-23T14:54:08;8.90;;;5.90;;
38611;SDS011;24368;52.156;20.788;2023-02-23T14:59:22;6.90;;;4.90;;
38611;SDS011;24368;52.156;20.788;2023-02-23T15:04:28;7.40;;;6.50;;
38611;SDS011;24368;52.156;20.788;2023-02-23T15:09:34;8.40;;;6.00;;
38611;SDS011;24368;52.156;20.788;2023-02-23T15:14:45;6.20;;;5.40;;
38611;SDS011;24368;52.156;20.788;2023-02-23T15:19:54;7.00;;;5.10;;
38611;SDS011;24368;52.156;20.788;2023-02-23T15:24:59;7.10;;;5.50;;
38611;SDS011;24368;52.156;20.788;2023-02-23T15:30:21;8.80;;;5.90;;
38611;SDS011;24368;52.156;20.788;2023-02-23T15:35:23;7.10;;;6.30;;
38611;SDS011;24368;52.156;20.788;2023-02-23T15:40:25;9.60;;;6.30;;
38611;SDS011;24368;52.156;20.788;2023-02-23T15:50:43;10.20;;;6.60;;
38611;SDS011;24368;52.156;20.788;2023-02-23T15:55:52;8.40;;;6.70;;
38611;SDS011;24368;52.156;20.788;2023-02-23T16:01:00;8.90;;;5.80;;
38611;SDS011;24368;52.156;20.788;2023-02-23T16:11:20;8.80;;;6.60;;
38611;SDS011;24368;52.156;20.788;2023-02-23T16:16:22;7.10;;;6.10;;
38611;SDS011;24368;52.156;20.788;2023-02-23T16:21:26;10.50;;;7.60;;
38611;SDS011;24368;52.156;20.788;2023-02-23T16:26:33;10.20;;;7.80;;
38611;SDS011;24368;52.156;20.788;2023-02-23T16:31:47;11.00;;;8.00;;
38611;SDS011;24368;52.156;20.788;2023-02-23T16:36:54;11.50;;;8.50;;
38611;SDS011;24368;52.156;20.788;2023-02-23T16:42:00;11.50;;;9.30;;
38611;SDS011;24368;52.156;20.788;2023-02-23T16:52:14;13.70;;;10.10;;
38611;SDS011;24368;52.156;20.788;2023-02-23T16:57:20;11.50;;;9.20;;
38611;SDS011;24368;52.156;20.788;2023-02-23T17:02:25;13.70;;;9.10;;
38611;SDS011;24368;52.156;20.788;2023-02-23T17:07:27;13.20;;;9.40;;
38611;SDS011;24368;52.156;20.788;2023-02-23T17:12:29;14.20;;;9.80;;
38611;SDS011;24368;52.156;20.788;2023-02-23T17:17:31;17.60;;;11.10;;
38611;SDS011;24368;52.156;20.788;2023-02-23T17:22:32;14.40;;;11.20;;
38611;SDS011;24368;52.156;20.788;2023-02-23T17:27:34;15.30;;;11.10;;
38611;SDS011;24368;52.156;20.788;2023-02-23T17:32:36;15.20;;;10.90;;
38611;SDS011;24368;52.156;20.788;2023-02-23T17:37:38;15.10;;;11.10;;
38611;SDS011;24368;52.156;20.788;2023-02-23T17:42:40;11.30;;;9.80;;
38611;SDS011;24368;52.156;20.788;2023-02-23T17:47:43;15.20;;;11.30;;
38611;SDS011;24368;52.156;20.788;2023-02-23T17:52:46;13.70;;;11.30;;
38611;SDS011;24368;52.156;20.788;2023-02-23T17:57:51;20.40;;;11.20;;
38611;SDS011;24368;52.156;20.788;2023-02-23T18:02:53;15.80;;;12.10;;
38611;SDS011;24368;52.156;20.788;2023-02-23T18:07:55;18.50;;;13.40;;
38611;SDS011;24368;52.156;20.788;2023-02-23T18:12:57;17.60;;;13.00;;
38611;SDS011;24368;52.156;20.788;2023-02-23T18:18:00;17.10;;;13.70;;
38611;SDS011;24368;52.156;20.788;2023-02-23T18:23:02;15.00;;;12.70;;
38611;SDS011;24368;52.156;20.788;2023-02-23T18:28:03;16.10;;;13.30;;
38611;SDS011;24368;52.156;20.788;2023-02-23T18:33:05;18.70;;;14.70;;
38611;SDS011;24368;52.156;20.788;2023-02-23T18:38:12;18.70;;;14.50;;
38611;SDS011;24368;52.156;20.788;2023-02-23T18:43:15;17.80;;;13.20;;
38611;SDS011;24368;52.156;20.788;2023-02-23T18:48:17;18.00;;;13.60;;
38611;SDS011;24368;52.156;20.788;2023-02-23T18:53:19;18.10;;;14.20;;
38611;SDS011;24368;52.156;20.788;2023-02-23T18:58:20;20.50;;;15.40;;
38611;SDS011;24368;52.156;20.788;2023-02-23T19:03:22;21.40;;;16.80;;
38611;SDS011;24368;52.156;20.788;2023-02-23T19:08:24;20.40;;;15.10;;
38611;SDS011;24368;52.156;20.788;2023-02-23T19:13:26;18.70;;;15.60;;
38611;SDS011;24368;52.156;20.788;2023-02-23T19:18:28;22.20;;;16.40;;
38611;SDS011;24368;52.156;20.788;2023-02-23T19:23:30;22.30;;;16.10;;
38611;SDS011;24368;52.156;20.788;2023-02-23T19:28:32;24.20;;;18.30;;
38611;SDS011;24368;52.156;20.788;2023-02-23T19:33:34;24.60;;;16.70;;
38611;SDS011;24368;52.156;20.788;2023-02-23T19:38:40;22.60;;;16.20;;
38611;SDS011;24368;52.156;20.788;2023-02-23T19:43:43;19.90;;;17.10;;
38611;SDS011;24368;52.156;20.788;2023-02-23T19:48:48;24.00;;;18.00;;
38611;SDS011;24368;52.156;20.788;2023-02-23T19:53:52;21.10;;;17.90;;
38611;SDS011;24368;52.156;20.788;2023-02-23T19:58:55;22.80;;;18.10;;
38611;SDS011;24368;52.156;20.788;2023-02-23T20:03:58;25.00;;;18.50;;
38611;SDS011;24368;52.156;20.788;2023-02-23T20:09:05;28.10;;;19.60;;
38611;SDS011;24368;52.156;20.788;2023-02-23T20:14:09;20.70;;;16.90;;
38611;SDS011;24368;52.156;20.788;2023-02-23T20:19:12;20.90;;;17.60;;
38611;SDS011;24368;52.156;20.788;2023-02-23T20:24:14;25.90;;;19.40;;
38611;SDS011;24368;52.156;20.788;2023-02-23T20:29:17;24.40;;;18.30;;
38611;SDS011;24368;52.156;20.788;2023-02-23T20:34:20;25.60;;;18.90;;
38611;SDS011;24368;52.156;20.788;2023-02-23T20:39:23;25.60;;;19.20;;
38611;SDS011;24368;52.156;20.788;2023-02-23T20:44:27;24.40;;;18.40;;
38611;SDS011;24368;52.156;20.788;2023-02-23T20:49:30;23.10;;;18.00;;
38611;SDS011;24368;52.156;20.788;2023-02-23T20:54:32;22.80;;;17.30;;
38611;SDS011;24368;52.156;20.788;2023-02-23T20:59:34;26.50;;;19.40;;
38611;SDS011;24368;52.156;20.788;2023-02-23T21:04:37;21.10;;;17.70;;
38611;SDS011;24368;52.156;20.788;2023-02-23T21:09:39;23.30;;;18.10;;
38611;SDS011;24368;52.156;20.788;2023-02-23T21:14:41;25.40;;;20.20;;
38611;SDS011;24368;52.156;20.788;2023-02-23T21:19:43;27.10;;;20.40;;
38611;SDS011;24368;52.156;20.788;2023-02-23T21:24:45;27.00;;;20.50;;
38611;SDS011;24368;52.156;20.788;2023-02-23T21:29:47;25.40;;;19.60;;
38611;SDS011;24368;52.156;20.788;2023-02-23T21:34:48;26.10;;;19.70;;
38611;SDS011;24368;52.156;20.788;2023-02-23T21:39:50;24.80;;;19.60;;
38611;SDS011;24368;52.156;20.788;2023-02-23T21:44:52;29.30;;;21.80;;
38611;SDS011;24368;52.156;20.788;2023-02-23T21:49:54;25.40;;;20.20;;
38611;SDS011;24368;52.156;20.788;2023-02-23T21:54:56;27.70;;;21.40;;
38611;SDS011;24368;52.156;20.788;2023-02-23T21:59:59;26.20;;;21.30;;
38611;SDS011;24368;52.156;20.788;2023-02-23T22:05:01;31.50;;;20.50;;
38611;SDS011;24368;52.156;20.788;2023-02-23T22:10:03;29.30;;;20.60;;
38611;SDS011;24368;52.156;20.788;2023-02-23T22:15:06;28.00;;;20.70;;
38611;SDS011;24368;52.156;20.788;2023-02-23T22:20:09;28.30;;;19.70;;
38611;SDS011;24368;52.156;20.788;2023-02-23T22:25:12;26.30;;;19.70;;
38611;SDS011;24368;52.156;20.788;2023-02-23T22:30:14;26.30;;;20.50;;
38611;SDS011;24368;52.156;20.788;2023-02-23T22:35:16;27.60;;;21.40;;
38611;SDS011;24368;52.156;20.788;2023-02-23T22:40:18;27.00;;;20.50;;
38611;SDS011;24368;52.156;20.788;2023-02-23T22:45:19;28.90;;;20.40;;
38611;SDS011;24368;52.156;20.788;2023-02-23T22:50:21;27.80;;;20.90;;
38611;SDS011;24368;52.156;20.788;2023-02-23T22:55:23;28.30;;;20.90;;
38611;SDS011;24368;52.156;20.788;2023-02-23T23:05:30;26.00;;;20.50;;
38611;SDS011;24368;52.156;20.788;2023-02-23T23:10:33;27.30;;;21.20;;
38611;SDS011;24368;52.156;20.788;2023-02-23T23:15:35;26.70;;;20.50;;
38611;SDS011;24368;52.156;20.788;2023-02-23T23:20:41;25.30;;;19.50;;
38611;SDS011;24368;52.156;20.788;2023-02-23T23:25:44;28.10;;;19.90;;
38611;SDS011;24368;52.156;20.788;2023-02-23T23:30:47;27.00;;;20.90;;
38611;SDS011;24368;52.156;20.788;2023-02-23T23:35:52;31.10;;;22.30;;
38611;SDS011;24368;52.156;20.788;2023-02-23T23:40:54;28.20;;;21.50;;
38611;SDS011;24368;52.156;20.788;2023-02-23T23:45:55;29.40;;;22.50;;
38611;SDS011;24368;52.156;20.788;2023-02-23T23:51:01;27.30;;;20.60;;
38611;SDS011;24368;52.156;20.788;2023-02-23T23:56:07;29.00;;;22.10;;
